sensor_id;sensor_type;location;lat;lon;timestamp;P1;durP1;ratioP1;P2;durP2;ratioP2
14789;SDS011;7486;51.010;10.366;2022-08-02T00:00:57;1.50;;;1.40;;
14789;SDS011;7486;51.010;10.366;2022-08-02T00:03:24;1.70;;;1.60;;
14789;SDS011;7486;51.010;10.366;2022-08-02T00:05:51;1.65;;;1.50;;
14789;SDS011;7486;51.010;10.366;2022-08-02T00:08:19;1.60;;;1.50;;
14789;SDS011;7486;51.010;10.366;2022-08-02T00:10:46;1.50;;;1.40;;
14789;SDS011;7486;51.010;10.366;2022-08-02T00:13:13;2.33;;;1.30;;
14789;SDS011;7486;51.010;10.366;2022-08-02T00:15:40;1.95;;;1.40;;
14789;SDS011;7486;51.010;10.366;2022-08-02T00:18:07;1.50;;;1.40;;
14789;SDS011;7486;51.010;10.366;2022-08-02T00:20:34;2.45;;;1.50;;
14789;SDS011;7486;51.010;10.366;2022-08-02T00:23:01;2.10;;;1.45;;
14789;SDS011;7486;51.010;10.366;2022-08-02T00:25:27;1.70;;;1.45;;
14789;SDS011;7486;51.010;10.366;2022-08-02T00:27:54;2.00;;;1.67;;
14789;SDS011;7486;51.010;10.366;2022-08-02T00:30:21;1.60;;;1.50;;
14789;SDS011;7486;51.010;10.366;2022-08-02T00:32:47;2.47;;;1.60;;
14789;SDS011;7486;51.010;10.366;2022-08-02T00:35:14;1.60;;;1.50;;
14789;SDS011;7486;51.010;10.366;2022-08-02T00:37:41;1.50;;;1.40;;
14789;SDS011;7486;51.010;10.366;2022-08-02T00:40:08;1.60;;;1.50;;
14789;SDS011;7486;51.010;10.366;2022-08-02T00:42:36;1.40;;;1.30;;
14789;SDS011;7486;51.010;10.366;2022-08-02T00:45:03;4.13;;;1.67;;
14789;SDS011;7486;51.010;10.366;2022-08-02T00:47:31;1.70;;;1.60;;
14789;SDS011;7486;51.010;10.366;2022-08-02T00:49:57;1.83;;;1.52;;
14789;SDS011;7486;51.010;10.366;2022-08-02T00:52:24;1.60;;;1.50;;
14789;SDS011;7486;51.010;10.366;2022-08-02T00:54:51;1.70;;;1.58;;
14789;SDS011;7486;51.010;10.366;2022-08-02T00:57:18;2.75;;;1.50;;
14789;SDS011;7486;51.010;10.366;2022-08-02T00:59:45;3.30;;;1.60;;
14789;SDS011;7486;51.010;10.366;2022-08-02T01:02:12;1.67;;;1.58;;
14789;SDS011;7486;51.010;10.366;2022-08-02T01:04:39;1.63;;;1.50;;
14789;SDS011;7486;51.010;10.366;2022-08-02T01:07:06;2.65;;;1.60;;
14789;SDS011;7486;51.010;10.366;2022-08-02T01:09:42;3.00;;;1.60;;
14789;SDS011;7486;51.010;10.366;2022-08-02T01:12:10;1.92;;;1.70;;
14789;SDS011;7486;51.010;10.366;2022-08-02T01:14:42;3.45;;;1.40;;
14789;SDS011;7486;51.010;10.366;2022-08-02T01:23:27;1.65;;;1.55;;
14789;SDS011;7486;51.010;10.366;2022-08-02T01:36:32;1.90;;;1.80;;
14789;SDS011;7486;51.010;10.366;2022-08-02T01:39:03;2.85;;;1.70;;
14789;SDS011;7486;51.010;10.366;2022-08-02T01:41:33;2.25;;;1.67;;
14789;SDS011;7486;51.010;10.366;2022-08-02T01:44:01;1.50;;;1.40;;
14789;SDS011;7486;51.010;10.366;2022-08-02T01:46:55;2.15;;;1.70;;
14789;SDS011;7486;51.010;10.366;2022-08-02T01:49:26;1.98;;;1.88;;
14789;SDS011;7486;51.010;10.366;2022-08-02T01:51:56;1.85;;;1.75;;
14789;SDS011;7486;51.010;10.366;2022-08-02T01:54:26;3.75;;;1.90;;
14789;SDS011;7486;51.010;10.366;2022-08-02T01:56:56;1.88;;;1.77;;
14789;SDS011;7486;51.010;10.366;2022-08-02T01:59:24;3.50;;;1.85;;
14789;SDS011;7486;51.010;10.366;2022-08-02T02:01:53;2.63;;;1.92;;
14789;SDS011;7486;51.010;10.366;2022-08-02T02:04:22;2.03;;;1.92;;
14789;SDS011;7486;51.010;10.366;2022-08-02T02:06:52;3.05;;;1.92;;
14789;SDS011;7486;51.010;10.366;2022-08-02T02:09:20;2.03;;;1.90;;
14789;SDS011;7486;51.010;10.366;2022-08-02T02:11:48;2.00;;;1.90;;
14789;SDS011;7486;51.010;10.366;2022-08-02T02:14:36;2.72;;;1.85;;
14789;SDS011;7486;51.010;10.366;2022-08-02T02:17:05;2.60;;;2.00;;
14789;SDS011;7486;51.010;10.366;2022-08-02T02:19:53;2.30;;;2.10;;
14789;SDS011;7486;51.010;10.366;2022-08-02T02:22:24;2.30;;;2.10;;
14789;SDS011;7486;51.010;10.366;2022-08-02T02:24:53;2.72;;;2.08;;
14789;SDS011;7486;51.010;10.366;2022-08-02T02:27:20;2.53;;;2.10;;
14789;SDS011;7486;51.010;10.366;2022-08-02T02:29:48;3.10;;;2.20;;
14789;SDS011;7486;51.010;10.366;2022-08-02T02:32:18;2.75;;;2.08;;
14789;SDS011;7486;51.010;10.366;2022-08-02T02:34:47;3.33;;;2.10;;
14789;SDS011;7486;51.010;10.366;2022-08-02T02:37:18;2.10;;;1.90;;
14789;SDS011;7486;51.010;10.366;2022-08-02T02:39:50;2.05;;;1.95;;
14789;SDS011;7486;51.010;10.366;2022-08-02T02:42:21;2.90;;;2.17;;
14789;SDS011;7486;51.010;10.366;2022-08-02T02:44:52;6.53;;;2.10;;
14789;SDS011;7486;51.010;10.366;2022-08-02T02:47:20;2.35;;;2.15;;
14789;SDS011;7486;51.010;10.366;2022-08-02T02:50:07;2.58;;;2.03;;
14789;SDS011;7486;51.010;10.366;2022-08-02T02:52:35;3.75;;;2.50;;
14789;SDS011;7486;51.010;10.366;2022-08-02T02:55:04;3.78;;;2.30;;
14789;SDS011;7486;51.010;10.366;2022-08-02T02:57:33;2.95;;;1.98;;
14789;SDS011;7486;51.010;10.366;2022-08-02T03:00:03;4.22;;;2.30;;
14789;SDS011;7486;51.010;10.366;2022-08-02T03:02:32;2.38;;;2.03;;
14789;SDS011;7486;51.010;10.366;2022-08-02T03:05:02;2.58;;;2.10;;
14789;SDS011;7486;51.010;10.366;2022-08-02T03:07:31;3.50;;;2.10;;
14789;SDS011;7486;51.010;10.366;2022-08-02T03:09:59;2.47;;;2.00;;
14789;SDS011;7486;51.010;10.366;2022-08-02T03:12:26;3.25;;;2.22;;
14789;SDS011;7486;51.010;10.366;2022-08-02T03:14:58;2.30;;;2.20;;
14789;SDS011;7486;51.010;10.366;2022-08-02T03:17:44;2.28;;;2.00;;
14789;SDS011;7486;51.010;10.366;2022-08-02T03:20:13;2.15;;;2.05;;
14789;SDS011;7486;51.010;10.366;2022-08-02T03:22:42;3.17;;;2.10;;
14789;SDS011;7486;51.010;10.366;2022-08-02T03:25:10;2.45;;;2.25;;
14789;SDS011;7486;51.010;10.366;2022-08-02T03:27:38;2.40;;;2.20;;
14789;SDS011;7486;51.010;10.366;2022-08-02T03:30:07;2.88;;;2.10;;
14789;SDS011;7486;51.010;10.366;2022-08-02T03:32:35;2.50;;;2.20;;
14789;SDS011;7486;51.010;10.366;2022-08-02T03:35:04;2.88;;;2.25;;
14789;SDS011;7486;51.010;10.366;2022-08-02T03:37:33;3.25;;;1.80;;
14789;SDS011;7486;51.010;10.366;2022-08-02T03:40:03;3.80;;;2.00;;
14789;SDS011;7486;51.010;10.366;2022-08-02T03:42:33;4.10;;;2.38;;
14789;SDS011;7486;51.010;10.366;2022-08-02T03:45:00;3.35;;;2.03;;
14789;SDS011;7486;51.010;10.366;2022-08-02T03:47:34;2.28;;;2.08;;
14789;SDS011;7486;51.010;10.366;2022-08-02T03:50:03;2.15;;;2.05;;
14789;SDS011;7486;51.010;10.366;2022-08-02T03:52:31;2.45;;;2.13;;
14789;SDS011;7486;51.010;10.366;2022-08-02T03:54:58;2.78;;;2.08;;
14789;SDS011;7486;51.010;10.366;2022-08-02T03:57:25;2.40;;;2.22;;
14789;SDS011;7486;51.010;10.366;2022-08-02T03:59:52;2.00;;;1.83;;
14789;SDS011;7486;51.010;10.366;2022-08-02T04:02:19;2.75;;;1.90;;
14789;SDS011;7486;51.010;10.366;2022-08-02T04:04:45;2.45;;;2.25;;
14789;SDS011;7486;51.010;10.366;2022-08-02T04:07:12;2.42;;;2.22;;
14789;SDS011;7486;51.010;10.366;2022-08-02T04:09:39;2.60;;;2.40;;
14789;SDS011;7486;51.010;10.366;2022-08-02T04:12:05;3.00;;;2.10;;
14789;SDS011;7486;51.010;10.366;2022-08-02T04:14:32;3.22;;;2.20;;
14789;SDS011;7486;51.010;10.366;2022-08-02T04:17:03;2.40;;;2.20;;
14789;SDS011;7486;51.010;10.366;2022-08-02T04:22:17;3.53;;;2.40;;
14789;SDS011;7486;51.010;10.366;2022-08-02T04:24:49;2.53;;;2.33;;
14789;SDS011;7486;51.010;10.366;2022-08-02T04:27:22;2.83;;;2.33;;
14789;SDS011;7486;51.010;10.366;2022-08-02T04:30:10;3.50;;;2.63;;
14789;SDS011;7486;51.010;10.366;2022-08-02T04:32:37;3.45;;;2.85;;
14789;SDS011;7486;51.010;10.366;2022-08-02T04:35:05;5.40;;;2.30;;
14789;SDS011;7486;51.010;10.366;2022-08-02T04:37:48;6.10;;;2.47;;
14789;SDS011;7486;51.010;10.366;2022-08-02T04:40:35;7.63;;;2.60;;
14789;SDS011;7486;51.010;10.366;2022-08-02T04:43:02;7.40;;;2.47;;
14789;SDS011;7486;51.010;10.366;2022-08-02T04:45:29;3.85;;;2.53;;
14789;SDS011;7486;51.010;10.366;2022-08-02T04:47:57;5.05;;;2.40;;
14789;SDS011;7486;51.010;10.366;2022-08-02T04:50:32;4.50;;;2.53;;
14789;SDS011;7486;51.010;10.366;2022-08-02T04:53:00;4.40;;;2.20;;
14789;SDS011;7486;51.010;10.366;2022-08-02T04:55:26;2.90;;;2.17;;
14789;SDS011;7486;51.010;10.366;2022-08-02T04:57:54;4.68;;;2.20;;
14789;SDS011;7486;51.010;10.366;2022-08-02T05:00:22;3.05;;;2.00;;
14789;SDS011;7486;51.010;10.366;2022-08-02T05:02:50;2.17;;;1.98;;
14789;SDS011;7486;51.010;10.366;2022-08-02T05:05:17;2.58;;;1.98;;
14789;SDS011;7486;51.010;10.366;2022-08-02T05:07:44;2.95;;;2.22;;
14789;SDS011;7486;51.010;10.366;2022-08-02T05:10:11;3.80;;;2.00;;
14789;SDS011;7486;51.010;10.366;2022-08-02T05:12:38;3.55;;;2.30;;
14789;SDS011;7486;51.010;10.366;2022-08-02T05:15:05;2.63;;;2.42;;
14789;SDS011;7486;51.010;10.366;2022-08-02T05:17:38;3.85;;;2.00;;
14789;SDS011;7486;51.010;10.366;2022-08-02T05:20:12;3.70;;;2.13;;
14789;SDS011;7486;51.010;10.366;2022-08-02T05:22:40;2.42;;;2.20;;
14789;SDS011;7486;51.010;10.366;2022-08-02T05:25:07;3.10;;;2.15;;
14789;SDS011;7486;51.010;10.366;2022-08-02T05:27:34;2.00;;;1.90;;
14789;SDS011;7486;51.010;10.366;2022-08-02T05:30:01;2.63;;;2.42;;
14789;SDS011;7486;51.010;10.366;2022-08-02T05:32:28;4.97;;;2.90;;
14789;SDS011;7486;51.010;10.366;2022-08-02T05:34:55;3.70;;;2.65;;
14789;SDS011;7486;51.010;10.366;2022-08-02T05:37:22;3.45;;;2.83;;
14789;SDS011;7486;51.010;10.366;2022-08-02T05:39:49;3.47;;;3.17;;
14789;SDS011;7486;51.010;10.366;2022-08-02T05:42:22;3.00;;;2.70;;
14789;SDS011;7486;51.010;10.366;2022-08-02T05:44:49;2.70;;;2.50;;
14789;SDS011;7486;51.010;10.366;2022-08-02T05:47:15;2.85;;;2.60;;
14789;SDS011;7486;51.010;10.366;2022-08-02T05:49:42;4.47;;;3.30;;
14789;SDS011;7486;51.010;10.366;2022-08-02T05:52:16;4.05;;;3.10;;
14789;SDS011;7486;51.010;10.366;2022-08-02T05:57:29;4.28;;;2.78;;
14789;SDS011;7486;51.010;10.366;2022-08-02T06:00:10;3.40;;;2.83;;
14789;SDS011;7486;51.010;10.366;2022-08-02T06:05:15;3.58;;;2.80;;
14789;SDS011;7486;51.010;10.366;2022-08-02T06:07:47;4.57;;;2.95;;
14789;SDS011;7486;51.010;10.366;2022-08-02T06:10:15;2.92;;;2.72;;
14789;SDS011;7486;51.010;10.366;2022-08-02T06:15:15;3.45;;;3.00;;
14789;SDS011;7486;51.010;10.366;2022-08-02T06:17:43;8.48;;;3.22;;
14789;SDS011;7486;51.010;10.366;2022-08-02T06:20:13;4.05;;;3.50;;
14789;SDS011;7486;51.010;10.366;2022-08-02T06:22:41;6.57;;;3.70;;
14789;SDS011;7486;51.010;10.366;2022-08-02T06:25:10;3.72;;;3.35;;
14789;SDS011;7486;51.010;10.366;2022-08-02T06:27:58;4.28;;;3.63;;
14789;SDS011;7486;51.010;10.366;2022-08-02T06:30:26;8.82;;;3.70;;
14789;SDS011;7486;51.010;10.366;2022-08-02T06:32:54;3.83;;;3.17;;
14789;SDS011;7486;51.010;10.366;2022-08-02T06:35:21;4.38;;;3.42;;
14789;SDS011;7486;51.010;10.366;2022-08-02T06:38:01;3.63;;;3.33;;
14789;SDS011;7486;51.010;10.366;2022-08-02T06:40:30;3.55;;;3.25;;
14789;SDS011;7486;51.010;10.366;2022-08-02T06:45:39;6.85;;;3.22;;
14789;SDS011;7486;51.010;10.366;2022-08-02T06:48:06;5.80;;;3.42;;
14789;SDS011;7486;51.010;10.366;2022-08-02T06:50:34;3.72;;;3.00;;
14789;SDS011;7486;51.010;10.366;2022-08-02T06:53:01;3.42;;;3.10;;
14789;SDS011;7486;51.010;10.366;2022-08-02T06:55:28;3.13;;;2.80;;
14789;SDS011;7486;51.010;10.366;2022-08-02T06:57:55;4.20;;;2.65;;
14789;SDS011;7486;51.010;10.366;2022-08-02T07:00:21;5.53;;;3.22;;
14789;SDS011;7486;51.010;10.366;2022-08-02T07:02:48;4.35;;;3.33;;
14789;SDS011;7486;51.010;10.366;2022-08-02T07:05:15;6.22;;;3.70;;
14789;SDS011;7486;51.010;10.366;2022-08-02T07:07:42;4.18;;;2.95;;
14789;SDS011;7486;51.010;10.366;2022-08-02T07:10:09;3.97;;;3.20;;
14789;SDS011;7486;51.010;10.366;2022-08-02T07:12:35;4.88;;;3.40;;
14789;SDS011;7486;51.010;10.366;2022-08-02T07:15:03;4.55;;;3.20;;
14789;SDS011;7486;51.010;10.366;2022-08-02T07:17:32;4.88;;;3.60;;
14789;SDS011;7486;51.010;10.366;2022-08-02T07:19:59;4.07;;;3.50;;
14789;SDS011;7486;51.010;10.366;2022-08-02T07:22:26;4.05;;;3.67;;
14789;SDS011;7486;51.010;10.366;2022-08-02T07:24:54;5.50;;;3.50;;
14789;SDS011;7486;51.010;10.366;2022-08-02T07:27:22;3.80;;;3.40;;
14789;SDS011;7486;51.010;10.366;2022-08-02T07:29:49;8.52;;;3.40;;
14789;SDS011;7486;51.010;10.366;2022-08-02T07:32:16;3.90;;;3.33;;
14789;SDS011;7486;51.010;10.366;2022-08-02T07:34:44;5.65;;;3.35;;
14789;SDS011;7486;51.010;10.366;2022-08-02T07:37:18;5.72;;;3.70;;
14789;SDS011;7486;51.010;10.366;2022-08-02T07:40:07;3.58;;;3.03;;
14789;SDS011;7486;51.010;10.366;2022-08-02T07:42:43;3.30;;;3.00;;
14789;SDS011;7486;51.010;10.366;2022-08-02T07:45:10;3.58;;;3.20;;
14789;SDS011;7486;51.010;10.366;2022-08-02T07:47:39;3.30;;;3.00;;
14789;SDS011;7486;51.010;10.366;2022-08-02T07:50:06;4.20;;;3.22;;
14789;SDS011;7486;51.010;10.366;2022-08-02T07:52:34;5.55;;;3.00;;
14789;SDS011;7486;51.010;10.366;2022-08-02T07:55:01;3.85;;;2.78;;
14789;SDS011;7486;51.010;10.366;2022-08-02T07:57:28;3.95;;;3.10;;
14789;SDS011;7486;51.010;10.366;2022-08-02T07:59:54;4.15;;;3.08;;
14789;SDS011;7486;51.010;10.366;2022-08-02T08:02:21;3.72;;;3.33;;
14789;SDS011;7486;51.010;10.366;2022-08-02T08:04:48;3.20;;;2.70;;
14789;SDS011;7486;51.010;10.366;2022-08-02T08:07:15;5.03;;;2.60;;
14789;SDS011;7486;51.010;10.366;2022-08-02T08:09:41;3.30;;;2.30;;
14789;SDS011;7486;51.010;10.366;2022-08-02T08:12:08;4.97;;;2.60;;
14789;SDS011;7486;51.010;10.366;2022-08-02T08:14:37;4.25;;;2.45;;
14789;SDS011;7486;51.010;10.366;2022-08-02T08:17:05;3.45;;;2.50;;
14789;SDS011;7486;51.010;10.366;2022-08-02T08:19:32;2.97;;;2.25;;
14789;SDS011;7486;51.010;10.366;2022-08-02T08:22:20;4.28;;;2.30;;
14789;SDS011;7486;51.010;10.366;2022-08-02T08:24:47;2.70;;;2.03;;
14789;SDS011;7486;51.010;10.366;2022-08-02T08:27:14;2.25;;;1.42;;
14789;SDS011;7486;51.010;10.366;2022-08-02T08:29:42;2.10;;;1.33;;
14789;SDS011;7486;51.010;10.366;2022-08-02T08:32:09;2.50;;;1.80;;
14789;SDS011;7486;51.010;10.366;2022-08-02T08:34:42;2.25;;;1.77;;
14789;SDS011;7486;51.010;10.366;2022-08-02T08:37:09;3.45;;;1.92;;
14789;SDS011;7486;51.010;10.366;2022-08-02T08:39:44;1.83;;;1.40;;
14789;SDS011;7486;51.010;10.366;2022-08-02T08:42:23;2.30;;;1.30;;
14789;SDS011;7486;51.010;10.366;2022-08-02T08:44:49;1.85;;;1.35;;
14789;SDS011;7486;51.010;10.366;2022-08-02T08:47:16;3.22;;;1.95;;
14789;SDS011;7486;51.010;10.366;2022-08-02T08:49:44;2.35;;;1.50;;
14789;SDS011;7486;51.010;10.366;2022-08-02T08:52:18;1.38;;;1.27;;
14789;SDS011;7486;51.010;10.366;2022-08-02T08:54:50;2.70;;;1.50;;
14789;SDS011;7486;51.010;10.366;2022-08-02T08:57:19;2.25;;;1.33;;
14789;SDS011;7486;51.010;10.366;2022-08-02T08:59:46;5.88;;;1.48;;
14789;SDS011;7486;51.010;10.366;2022-08-02T09:02:13;2.28;;;1.50;;
14789;SDS011;7486;51.010;10.366;2022-08-02T09:04:47;2.35;;;1.35;;
14789;SDS011;7486;51.010;10.366;2022-08-02T09:07:20;1.38;;;1.27;;
14789;SDS011;7486;51.010;10.366;2022-08-02T09:09:48;1.90;;;1.38;;
14789;SDS011;7486;51.010;10.366;2022-08-02T09:12:15;3.97;;;1.55;;
14789;SDS011;7486;51.010;10.366;2022-08-02T09:14:44;2.40;;;1.40;;
14789;SDS011;7486;51.010;10.366;2022-08-02T09:17:15;1.27;;;1.17;;
14789;SDS011;7486;51.010;10.366;2022-08-02T09:19:43;2.97;;;1.40;;
14789;SDS011;7486;51.010;10.366;2022-08-02T09:22:11;2.58;;;1.40;;
14789;SDS011;7486;51.010;10.366;2022-08-02T09:24:45;1.40;;;1.30;;
14789;SDS011;7486;51.010;10.366;2022-08-02T09:27:16;1.80;;;1.20;;
14789;SDS011;7486;51.010;10.366;2022-08-02T09:29:49;1.27;;;1.10;;
14789;SDS011;7486;51.010;10.366;2022-08-02T09:32:46;1.13;;;1.10;;
14789;SDS011;7486;51.010;10.366;2022-08-02T09:35:29;1.00;;;1.00;;
14789;SDS011;7486;51.010;10.366;2022-08-02T09:38:20;1.35;;;1.25;;
14789;SDS011;7486;51.010;10.366;2022-08-02T09:40:46;1.10;;;1.10;;
14789;SDS011;7486;51.010;10.366;2022-08-02T09:43:14;1.27;;;1.15;;
14789;SDS011;7486;51.010;10.366;2022-08-02T09:45:41;1.23;;;1.13;;
14789;SDS011;7486;51.010;10.366;2022-08-02T09:48:08;1.38;;;1.20;;
14789;SDS011;7486;51.010;10.366;2022-08-02T09:50:36;1.35;;;1.27;;
14789;SDS011;7486;51.010;10.366;2022-08-02T09:53:04;1.17;;;1.08;;
14789;SDS011;7486;51.010;10.366;2022-08-02T09:55:31;1.20;;;1.20;;
14789;SDS011;7486;51.010;10.366;2022-08-02T09:58:14;1.27;;;1.10;;
14789;SDS011;7486;51.010;10.366;2022-08-02T10:00:55;1.30;;;1.20;;
14789;SDS011;7486;51.010;10.366;2022-08-02T10:03:24;1.45;;;1.30;;
14789;SDS011;7486;51.010;10.366;2022-08-02T10:06:00;1.70;;;1.27;;
14789;SDS011;7486;51.010;10.366;2022-08-02T10:08:29;1.27;;;1.10;;
14789;SDS011;7486;51.010;10.366;2022-08-02T10:10:59;1.27;;;1.17;;
14789;SDS011;7486;51.010;10.366;2022-08-02T10:13:27;1.20;;;1.10;;
14789;SDS011;7486;51.010;10.366;2022-08-02T10:15:58;1.73;;;1.05;;
14789;SDS011;7486;51.010;10.366;2022-08-02T10:18:25;1.58;;;1.00;;
14789;SDS011;7486;51.010;10.366;2022-08-02T10:21:05;1.20;;;1.10;;
14789;SDS011;7486;51.010;10.366;2022-08-02T10:23:38;2.85;;;1.00;;
14789;SDS011;7486;51.010;10.366;2022-08-02T10:26:05;1.73;;;1.00;;
14789;SDS011;7486;51.010;10.366;2022-08-02T10:28:33;1.35;;;1.10;;
14789;SDS011;7486;51.010;10.366;2022-08-02T10:31:01;1.10;;;1.10;;
14789;SDS011;7486;51.010;10.366;2022-08-02T10:33:31;1.52;;;1.10;;
14789;SDS011;7486;51.010;10.366;2022-08-02T10:36:00;0.93;;;0.93;;
14789;SDS011;7486;51.010;10.366;2022-08-02T10:38:33;1.08;;;1.05;;
14789;SDS011;7486;51.010;10.366;2022-08-02T10:41:01;1.48;;;1.20;;
14789;SDS011;7486;51.010;10.366;2022-08-02T10:49:03;2.95;;;1.08;;
14789;SDS011;7486;51.010;10.366;2022-08-02T10:56:57;0.93;;;0.90;;
14789;SDS011;7486;51.010;10.366;2022-08-02T10:59:28;1.00;;;0.90;;
14789;SDS011;7486;51.010;10.366;2022-08-02T11:01:57;1.33;;;1.00;;
14789;SDS011;7486;51.010;10.366;2022-08-02T11:09:37;1.35;;;1.10;;
14789;SDS011;7486;51.010;10.366;2022-08-02T11:12:05;1.20;;;1.00;;
14789;SDS011;7486;51.010;10.366;2022-08-02T11:14:57;2.13;;;0.90;;
14789;SDS011;7486;51.010;10.366;2022-08-02T11:17:26;1.30;;;1.08;;
14789;SDS011;7486;51.010;10.366;2022-08-02T11:22:36;1.58;;;0.90;;
14789;SDS011;7486;51.010;10.366;2022-08-02T11:27:54;1.67;;;1.17;;
14789;SDS011;7486;51.010;10.366;2022-08-02T11:30:23;1.05;;;0.95;;
14789;SDS011;7486;51.010;10.366;2022-08-02T11:32:56;1.60;;;1.10;;
14789;SDS011;7486;51.010;10.366;2022-08-02T11:35:33;1.88;;;1.20;;
14789;SDS011;7486;51.010;10.366;2022-08-02T11:41:00;1.92;;;1.13;;
14789;SDS011;7486;51.010;10.366;2022-08-02T11:43:35;1.13;;;1.00;;
14789;SDS011;7486;51.010;10.366;2022-08-02T11:46:02;0.90;;;0.90;;
14789;SDS011;7486;51.010;10.366;2022-08-02T11:48:37;2.45;;;1.00;;
14789;SDS011;7486;51.010;10.366;2022-08-02T11:53:49;1.38;;;1.00;;
14789;SDS011;7486;51.010;10.366;2022-08-02T11:56:18;1.10;;;0.98;;
14789;SDS011;7486;51.010;10.366;2022-08-02T11:59:06;1.33;;;0.93;;
14789;SDS011;7486;51.010;10.366;2022-08-02T12:01:35;1.40;;;0.80;;
14789;SDS011;7486;51.010;10.366;2022-08-02T12:04:14;1.50;;;1.13;;
14789;SDS011;7486;51.010;10.366;2022-08-02T12:06:52;1.88;;;1.00;;
14789;SDS011;7486;51.010;10.366;2022-08-02T12:09:24;1.15;;;0.95;;
14789;SDS011;7486;51.010;10.366;2022-08-02T12:11:53;1.80;;;1.02;;
14789;SDS011;7486;51.010;10.366;2022-08-02T12:14:22;1.27;;;0.93;;
14789;SDS011;7486;51.010;10.366;2022-08-02T12:16:50;1.23;;;0.80;;
14789;SDS011;7486;51.010;10.366;2022-08-02T12:19:18;1.40;;;0.90;;
14789;SDS011;7486;51.010;10.366;2022-08-02T12:21:45;2.10;;;0.80;;
14789;SDS011;7486;51.010;10.366;2022-08-02T12:24:12;1.35;;;0.70;;
14789;SDS011;7486;51.010;10.366;2022-08-02T12:26:52;0.95;;;0.80;;
14789;SDS011;7486;51.010;10.366;2022-08-02T12:29:27;1.63;;;0.68;;
14789;SDS011;7486;51.010;10.366;2022-08-02T12:32:24;0.82;;;0.82;;
14789;SDS011;7486;51.010;10.366;2022-08-02T12:35:03;0.73;;;0.73;;
14789;SDS011;7486;51.010;10.366;2022-08-02T12:37:32;0.73;;;0.73;;
14789;SDS011;7486;51.010;10.366;2022-08-02T12:40:02;1.05;;;0.95;;
14789;SDS011;7486;51.010;10.366;2022-08-02T12:42:52;1.08;;;0.75;;
14789;SDS011;7486;51.010;10.366;2022-08-02T12:45:24;0.85;;;0.85;;
14789;SDS011;7486;51.010;10.366;2022-08-02T12:47:53;0.82;;;0.82;;
14789;SDS011;7486;51.010;10.366;2022-08-02T12:50:29;0.68;;;0.68;;
14789;SDS011;7486;51.010;10.366;2022-08-02T12:55:49;0.90;;;0.90;;
14789;SDS011;7486;51.010;10.366;2022-08-02T12:58:28;0.60;;;0.60;;
14789;SDS011;7486;51.010;10.366;2022-08-02T13:00:59;0.70;;;0.70;;
14789;SDS011;7486;51.010;10.366;2022-08-02T13:03:27;1.85;;;0.98;;
14789;SDS011;7486;51.010;10.366;2022-08-02T13:06:14;0.80;;;0.80;;
14789;SDS011;7486;51.010;10.366;2022-08-02T13:09:09;0.88;;;0.70;;
14789;SDS011;7486;51.010;10.366;2022-08-02T13:11:37;2.58;;;0.73;;
14789;SDS011;7486;51.010;10.366;2022-08-02T13:14:09;1.33;;;1.10;;
14789;SDS011;7486;51.010;10.366;2022-08-02T13:16:36;0.95;;;0.80;;
14789;SDS011;7486;51.010;10.366;2022-08-02T13:19:03;0.80;;;0.80;;
14789;SDS011;7486;51.010;10.366;2022-08-02T13:21:29;0.80;;;0.80;;
14789;SDS011;7486;51.010;10.366;2022-08-02T13:24:17;1.02;;;0.90;;
14789;SDS011;7486;51.010;10.366;2022-08-02T13:27:04;2.20;;;0.80;;
14789;SDS011;7486;51.010;10.366;2022-08-02T13:29:37;0.88;;;0.60;;
14789;SDS011;7486;51.010;10.366;2022-08-02T13:32:04;1.10;;;0.85;;
14789;SDS011;7486;51.010;10.366;2022-08-02T13:34:31;0.90;;;0.90;;
14789;SDS011;7486;51.010;10.366;2022-08-02T13:36:58;2.17;;;0.90;;
14789;SDS011;7486;51.010;10.366;2022-08-02T13:39:25;0.80;;;0.73;;
14789;SDS011;7486;51.010;10.366;2022-08-02T13:41:51;0.80;;;0.80;;
14789;SDS011;7486;51.010;10.366;2022-08-02T13:44:18;1.23;;;0.90;;
14789;SDS011;7486;51.010;10.366;2022-08-02T13:46:48;1.17;;;1.00;;
14789;SDS011;7486;51.010;10.366;2022-08-02T13:49:15;2.97;;;0.90;;
14789;SDS011;7486;51.010;10.366;2022-08-02T13:51:47;0.80;;;0.80;;
14789;SDS011;7486;51.010;10.366;2022-08-02T13:54:18;1.10;;;1.00;;
14789;SDS011;7486;51.010;10.366;2022-08-02T13:56:44;0.85;;;0.85;;
14789;SDS011;7486;51.010;10.366;2022-08-02T13:59:12;1.33;;;0.93;;
14789;SDS011;7486;51.010;10.366;2022-08-02T14:01:59;2.30;;;1.00;;
14789;SDS011;7486;51.010;10.366;2022-08-02T14:04:28;0.90;;;0.80;;
14789;SDS011;7486;51.010;10.366;2022-08-02T14:06:55;1.23;;;0.70;;
14789;SDS011;7486;51.010;10.366;2022-08-02T14:09:24;1.70;;;0.90;;
14789;SDS011;7486;51.010;10.366;2022-08-02T14:11:52;0.70;;;0.70;;
14789;SDS011;7486;51.010;10.366;2022-08-02T14:14:19;0.75;;;0.73;;
14789;SDS011;7486;51.010;10.366;2022-08-02T14:16:46;1.92;;;0.80;;
14789;SDS011;7486;51.010;10.366;2022-08-02T14:19:13;1.25;;;0.70;;
14789;SDS011;7486;51.010;10.366;2022-08-02T14:21:42;1.83;;;0.80;;
14789;SDS011;7486;51.010;10.366;2022-08-02T14:24:16;1.60;;;0.70;;
14789;SDS011;7486;51.010;10.366;2022-08-02T14:26:44;0.57;;;0.57;;
14789;SDS011;7486;51.010;10.366;2022-08-02T14:29:12;1.17;;;0.90;;
14789;SDS011;7486;51.010;10.366;2022-08-02T14:31:42;0.70;;;0.68;;
14789;SDS011;7486;51.010;10.366;2022-08-02T14:34:13;1.92;;;0.73;;
14789;SDS011;7486;51.010;10.366;2022-08-02T14:36:40;0.70;;;0.70;;
14789;SDS011;7486;51.010;10.366;2022-08-02T14:39:07;1.23;;;1.00;;
14789;SDS011;7486;51.010;10.366;2022-08-02T14:41:34;2.15;;;0.77;;
14789;SDS011;7486;51.010;10.366;2022-08-02T14:44:21;0.90;;;0.70;;
14789;SDS011;7486;51.010;10.366;2022-08-02T14:46:48;1.00;;;0.77;;
14789;SDS011;7486;51.010;10.366;2022-08-02T14:49:18;0.70;;;0.70;;
14789;SDS011;7486;51.010;10.366;2022-08-02T14:51:55;0.60;;;0.60;;
14789;SDS011;7486;51.010;10.366;2022-08-02T14:54:23;0.63;;;0.60;;
14789;SDS011;7486;51.010;10.366;2022-08-02T14:56:56;1.52;;;0.80;;
14789;SDS011;7486;51.010;10.366;2022-08-02T14:59:25;0.60;;;0.60;;
14789;SDS011;7486;51.010;10.366;2022-08-02T15:01:52;0.77;;;0.70;;
14789;SDS011;7486;51.010;10.366;2022-08-02T15:04:19;0.93;;;0.70;;
14789;SDS011;7486;51.010;10.366;2022-08-02T15:06:46;1.30;;;0.75;;
14789;SDS011;7486;51.010;10.366;2022-08-02T15:09:13;0.73;;;0.70;;
14789;SDS011;7486;51.010;10.366;2022-08-02T15:11:39;1.08;;;0.70;;
14789;SDS011;7486;51.010;10.366;2022-08-02T15:14:13;1.55;;;0.80;;
14789;SDS011;7486;51.010;10.366;2022-08-02T15:16:51;1.60;;;0.80;;
14789;SDS011;7486;51.010;10.366;2022-08-02T15:19:22;1.15;;;0.70;;
14789;SDS011;7486;51.010;10.366;2022-08-02T15:22:03;0.70;;;0.70;;
14789;SDS011;7486;51.010;10.366;2022-08-02T15:24:30;1.13;;;0.95;;
14789;SDS011;7486;51.010;10.366;2022-08-02T15:26:57;1.95;;;0.77;;
14789;SDS011;7486;51.010;10.366;2022-08-02T15:29:23;1.13;;;0.90;;
14789;SDS011;7486;51.010;10.366;2022-08-02T15:31:50;0.90;;;0.90;;
14789;SDS011;7486;51.010;10.366;2022-08-02T15:34:17;0.90;;;0.90;;
14789;SDS011;7486;51.010;10.366;2022-08-02T15:36:44;0.82;;;0.82;;
14789;SDS011;7486;51.010;10.366;2022-08-02T15:39:10;0.93;;;0.90;;
14789;SDS011;7486;51.010;10.366;2022-08-02T15:41:37;1.10;;;1.00;;
14789;SDS011;7486;51.010;10.366;2022-08-02T15:44:06;0.90;;;0.90;;
14789;SDS011;7486;51.010;10.366;2022-08-02T15:46:59;2.15;;;0.90;;
14789;SDS011;7486;51.010;10.366;2022-08-02T15:49:26;1.13;;;0.88;;
14789;SDS011;7486;51.010;10.366;2022-08-02T15:51:53;3.00;;;1.02;;
14789;SDS011;7486;51.010;10.366;2022-08-02T15:54:20;1.85;;;0.93;;
14789;SDS011;7486;51.010;10.366;2022-08-02T15:56:46;1.00;;;0.90;;
14789;SDS011;7486;51.010;10.366;2022-08-02T15:59:13;1.33;;;0.90;;
14789;SDS011;7486;51.010;10.366;2022-08-02T16:01:40;0.80;;;0.80;;
14789;SDS011;7486;51.010;10.366;2022-08-02T16:04:13;1.52;;;1.00;;
14789;SDS011;7486;51.010;10.366;2022-08-02T16:06:41;1.60;;;0.98;;